Time;durP1;ratioP1;P1;durP2;ratioP2;P2;SDS_P1;SDS_P2;PMS_P1;PMS_P2;Temp;Humidity;BMP_temperature;BMP_pressure;BME280_temperature;BME280_humidity;BME280_pressure;Samples;Min_cycle;Max_cycle;Signal;HPM_P1;HPM_P2
2022/08/25 00:00:21;;;;;;;34.40;31.10;;;;;;;;;;5011361;28;20517;-69
2022/08/25 00:02:47;;;;;;;36.75;33.03;;;;;;;;;;5011186;28;20104;-69
2022/08/25 00:05:13;;;;;;;32.88;29.42;;;;;;;;;;5010608;28;20057;-69
2022/08/25 00:07:39;;;;;;;32.47;29.10;;;;;;;;;;5010296;28;20044;-69
2022/08/25 00:10:06;;;;;;;33.70;30.23;;;;;;;;;;5011532;28;20045;-69
2022/08/25 00:12:32;;;;;;;30.55;27.42;;;;;;;;;;4993042;28;20065;-69
2022/08/25 00:14:58;;;;;;;30.33;27.27;;;;;;;;;;5011808;28;20025;-68
2022/08/25 00:17:24;;;;;;;37.00;33.30;;;;;;;;;;4992592;28;20462;-69
2022/08/25 00:19:50;;;;;;;32.35;28.95;;;;;;;;;;5011537;28;20042;-68
2022/08/25 00:22:16;;;;;;;32.17;28.17;;;;;;;;;;5011786;28;20137;-68
2022/08/25 00:24:42;;;;;;;32.42;28.92;;;;;;;;;;4993314;28;20077;-68
2022/08/25 00:27:11;;;;;;;30.58;27.48;;;;;;;;;;5010815;28;20045;-68
2022/08/25 00:29:37;;;;;;;33.03;29.63;;;;;;;;;;5010798;28;20042;-68
2022/08/25 00:32:04;;;;;;;31.52;28.48;;;;;;;;;;5011121;28;20038;-68
2022/08/25 00:34:34;;;;;;;29.05;26.05;;;;;;;;;;5011341;28;20042;-68
2022/08/25 00:37:02;;;;;;;30.20;26.98;;;;;;;;;;4992993;28;20131;-68
2022/08/25 00:39:28;;;;;;;26.42;23.70;;;;;;;;;;5010953;28;20034;-68
2022/08/25 00:41:55;;;;;;;29.27;25.98;;;;;;;;;;5010572;28;20123;-68
2022/08/25 00:44:22;;;;;;;29.63;26.58;;;;;;;;;;5011012;28;20077;-68
2022/08/25 00:46:51;;;;;;;26.50;23.73;;;;;;;;;;4992030;28;20049;-68
2022/08/25 00:49:23;;;;;;;29.55;26.35;;;;;;;;;;5009706;28;20116;-68
2022/08/25 00:51:52;;;;;;;24.95;22.25;;;;;;;;;;4992985;28;20042;-68
2022/08/25 00:54:21;;;;;;;26.35;22.90;;;;;;;;;;5010980;28;20049;-68
2022/08/25 00:56:50;;;;;;;27.08;24.25;;;;;;;;;;5009438;28;20085;-68
2022/08/25 00:59:16;;;;;;;23.30;20.92;;;;;;;;;;5007125;28;20066;-68
2022/08/25 01:01:42;;;;;;;23.38;21.00;;;;;;;;;;5010543;28;20108;-67
2022/08/25 01:04:08;;;;;;;23.15;20.83;;;;;;;;;;5010886;28;20380;-69
2022/08/25 01:06:37;;;;;;;22.77;20.35;;;;;;;;;;5010318;28;20037;-68
2022/08/25 01:09:04;;;;;;;20.63;18.42;;;;;;;;;;5006375;28;20046;-68
2022/08/25 01:11:30;;;;;;;19.65;17.33;;;;;;;;;;5009861;28;20045;-68
2022/08/25 01:13:57;;;;;;;20.40;17.58;;;;;;;;;;5010790;28;20038;-68
2022/08/25 01:16:23;;;;;;;21.70;18.67;;;;;;;;;;5010257;28;20076;-68
2022/08/25 01:18:53;;;;;;;21.52;17.80;;;;;;;;;;5009807;28;20045;-68
2022/08/25 01:21:20;;;;;;;20.33;17.52;;;;;;;;;;5005770;28;20038;-68
2022/08/25 01:23:48;;;;;;;19.27;16.98;;;;;;;;;;4992588;28;20046;-68
2022/08/25 01:26:19;;;;;;;19.98;17.70;;;;;;;;;;4992343;28;20128;-68
2022/08/25 01:31:32;;;;;;;17.85;15.95;;;;;;;;;;5010059;28;20038;-69
2022/08/25 01:34:24;;;;;;;24.33;17.13;;;;;;;;;;5038115;22;20082;-84
2022/08/25 01:37:03;;;;;;;18.52;16.63;;;;;;;;;;4975761;28;20587;-86
2022/08/25 01:39:32;;;;;;;18.58;16.77;;;;;;;;;;4995890;28;20050;-86
2022/08/25 01:42:33;;;;;;;17.15;15.45;;;;;;;;;;4994753;28;20042;-86
2022/08/25 01:45:23;;;;;;;19.17;17.08;;;;;;;;;;4977676;28;20046;-86
2022/08/25 01:47:58;;;;;;;18.88;15.27;;;;;;;;;;4983014;28;20433;-86
2022/08/25 01:50:30;;;;;;;16.58;14.88;;;;;;;;;;4978752;28;20148;-86
2022/08/25 01:53:12;;;;;;;;;;;;;;;;;;;;;
2022/08/25 01:55:50;;;;;;;19.60;16.13;;;;;;;;;;4997031;28;20052;-86
2022/08/25 01:58:20;;;;;;;17.90;15.98;;;;;;;;;;4971755;28;20449;-86
2022/08/25 02:00:50;;;;;;;17.10;15.05;;;;;;;;;;4971507;28;20045;-86
2022/08/25 02:06:17;;;;;;;20.33;16.90;;;;;;;;;;4981195;28;20541;-86
2022/08/25 02:08:52;;;;;;;19.08;17.08;;;;;;;;;;4968766;28;20152;-86
2022/08/25 02:11:24;;;;;;;17.63;15.63;;;;;;;;;;4961658;28;20202;-86
2022/08/25 02:13:53;;;;;;;17.98;16.08;;;;;;;;;;4979033;28;20129;-86
2022/08/25 02:16:30;;;;;;;18.40;16.40;;;;;;;;;;4986043;28;20259;-84
2022/08/25 02:19:04;;;;;;;19.67;15.55;;;;;;;;;;4983762;28;20046;-84
2022/08/25 02:21:35;;;;;;;17.83;15.20;;;;;;;;;;4985140;28;20802;-84
2022/08/25 02:24:17;;;;;;;19.80;14.50;;;;;;;;;;4961396;28;20126;-83
2022/08/25 02:26:57;;;;;;;16.50;14.75;;;;;;;;;;4979850;28;20482;-84
2022/08/25 02:29:29;;;;;;;17.45;15.52;;;;;;;;;;4979062;28;20042;-86
2022/08/25 02:31:58;;;;;;;17.52;13.63;;;;;;;;;;4971543;28;20088;-86
2022/08/25 02:34:27;;;;;;;15.13;13.23;;;;;;;;;;4979292;28;20514;-86
2022/08/25 02:36:55;;;;;;;16.95;15.25;;;;;;;;;;4970312;28;20372;-84
2022/08/25 02:39:22;;;;;;;18.80;15.15;;;;;;;;;;4987235;28;20494;-86
2022/08/25 02:41:48;;;;;;;14.88;13.20;;;;;;;;;;4978107;28;20065;-86
2022/08/25 02:44:17;;;;;;;18.13;14.20;;;;;;;;;;4957320;28;20121;-86
2022/08/25 02:46:54;;;;;;;16.13;13.38;;;;;;;;;;4984257;28;20050;-86
2022/08/25 02:49:34;;;;;;;17.05;13.57;;;;;;;;;;4987550;28;20045;-84
2022/08/25 02:52:02;;;;;;;16.88;13.88;;;;;;;;;;4985924;28;20330;-84
2022/08/25 02:54:30;;;;;;;15.73;13.63;;;;;;;;;;4955278;28;20042;-87
2022/08/25 02:57:02;;;;;;;14.93;11.35;;;;;;;;;;4985405;28;20041;-86
2022/08/25 02:59:30;;;;;;;14.30;12.75;;;;;;;;;;4966108;28;20501;-87
2022/08/25 03:02:09;;;;;;;;;;;;;;;;;;;;;
2022/08/25 03:04:38;;;;;;;16.27;13.30;;;;;;;;;;4981363;28;20053;-86
2022/08/25 03:07:09;;;;;;;16.92;13.73;;;;;;;;;;4964293;28;20133;-86
2022/08/25 03:09:38;;;;;;;;;;;;;;;;;;4973720;28;20097;-84
2022/08/25 03:12:14;;;;;;;14.52;12.52;;;;;;;;;;4973918;28;19921;-84
2022/08/25 03:14:51;;;;;;;15.73;12.85;;;;;;;;;;4955024;28;20057;-84
2022/08/25 03:17:17;;;;;;;16.52;14.15;;;;;;;;;;4958583;28;20046;-83
2022/08/25 03:19:43;;;;;;;16.58;13.02;;;;;;;;;;4978023;28;20050;-84
2022/08/25 03:22:09;;;;;;;15.27;12.07;;;;;;;;;;4979362;28;20046;-84
2022/08/25 03:24:35;;;;;;;16.50;12.90;;;;;;;;;;4962106;28;20057;-83
2022/08/25 03:27:13;;;;;;;18.25;12.15;;;;;;;;;;4973926;28;20038;-84
2022/08/25 03:29:55;;;;;;;14.07;11.15;;;;;;;;;;5004502;28;20050;-84
2022/08/25 03:32:24;;;;;;;12.90;10.63;;;;;;;;;;4962266;28;20057;-84
2022/08/25 03:35:04;;;;;;;13.48;9.65;;;;;;;;;;4970648;28;20068;-87
2022/08/25 03:37:33;;;;;;;14.18;10.43;;;;;;;;;;4989800;28;20037;-86
2022/08/25 03:40:04;;;;;;;15.65;10.57;;;;;;;;;;4984878;28;20042;-86
2022/08/25 03:42:33;;;;;;;13.85;11.30;;;;;;;;;;4977631;28;20038;-87
2022/08/25 03:44:59;;;;;;;12.88;10.35;;;;;;;;;;4985193;28;20073;-86
2022/08/25 03:47:28;;;;;;;13.30;10.77;;;;;;;;;;4982326;28;20042;-86
2022/08/25 03:50:00;;;;;;;13.15;10.35;;;;;;;;;;4975445;28;20080;-85
2022/08/25 03:52:50;;;;;;;15.48;10.60;;;;;;;;;;4996859;28;20592;-86
2022/08/25 03:55:19;;;;;;;15.00;10.57;;;;;;;;;;4989766;28;20099;-86
2022/08/25 03:57:48;;;;;;;12.93;10.43;;;;;;;;;;4961475;28;20042;-83
2022/08/25 04:00:21;;;;;;;13.35;9.43;;;;;;;;;;4973516;28;20096;-83
2022/08/25 04:03:11;;;;;;;;;;;;;;;;;;;;;
2022/08/25 04:05:41;;;;;;;12.13;9.60;;;;;;;;;;4979473;28;20319;-83
2022/08/25 04:08:12;;;;;;;9.82;8.07;;;;;;;;;;4981700;28;20606;-85
2022/08/25 04:10:41;;;;;;;11.82;8.75;;;;;;;;;;5003035;28;20053;-84
2022/08/25 04:13:13;;;;;;;13.50;8.27;;;;;;;;;;4961962;28;20112;-84
2022/08/25 04:15:59;;;;;;;12.10;8.38;;;;;;;;;;5001161;28;20065;-83
2022/08/25 04:18:33;;;;;;;11.60;8.20;;;;;;;;;;4984825;28;20545;-84
2022/08/25 04:21:13;;;;;;;12.90;8.45;;;;;;;;;;5001376;28;20054;-85
2022/08/25 04:23:43;;;;;;;12.95;7.95;;;;;;;;;;4998964;28;20049;-85
2022/08/25 04:26:18;;;;;;;10.57;8.30;;;;;;;;;;4981654;28;20037;-84
2022/08/25 04:28:52;;;;;;;12.35;7.45;;;;;;;;;;4998766;28;20107;-84
2022/08/25 04:31:25;;;;;;;9.25;7.40;;;;;;;;;;4984561;28;20157;-85
2022/08/25 04:34:21;;;;;;;12.43;7.80;;;;;;;;;;5002627;28;20140;-84
2022/08/25 04:37:16;;;;;;;10.18;7.50;;;;;;;;;;4969880;28;20053;-84
2022/08/25 04:39:48;;;;;;;11.32;7.53;;;;;;;;;;4981055;28;20042;-85
2022/08/25 04:42:58;;;;;;;9.90;6.90;;;;;;;;;;4971530;28;20054;-84
2022/08/25 04:46:01;;;;;;;14.43;8.10;;;;;;;;;;4989231;28;20650;-84
2022/08/25 04:48:27;;;;;;;13.35;7.60;;;;;;;;;;5006472;28;20070;-84
2022/08/25 04:50:53;;;;;;;12.13;7.35;;;;;;;;;;5005572;28;20771;-83
2022/08/25 04:53:20;;;;;;;10.07;7.15;;;;;;;;;;5006293;28;20038;-84
2022/08/25 04:55:47;;;;;;;8.50;5.85;;;;;;;;;;4984042;28;20037;-83
2022/08/25 04:58:16;;;;;;;8.90;6.53;;;;;;;;;;4979533;28;20038;-81
2022/08/25 05:00:45;;;;;;;9.77;6.28;;;;;;;;;;4993534;28;20056;-84
2022/08/25 05:03:11;;;;;;;9.73;6.70;;;;;;;;;;4969781;28;20042;-81
2022/08/25 05:05:37;;;;;;;10.45;6.43;;;;;;;;;;4972262;28;20042;-84
2022/08/25 05:08:04;;;;;;;8.68;6.10;;;;;;;;;;4996447;28;20050;-83
2022/08/25 05:10:31;;;;;;;9.90;6.60;;;;;;;;;;4981828;28;20147;-84
2022/08/25 05:12:57;;;;;;;10.23;6.25;;;;;;;;;;4961768;28;20042;-84
2022/08/25 05:18:07;;;;;;;;;;;;;;;;;;4992019;28;20052;-83
2022/08/25 05:20:36;;;;;;;8.95;6.90;;;;;;;;;;4975177;28;19921;-84
2022/08/25 05:23:02;;;;;;;9.73;6.47;;;;;;;;;;4992183;28;20115;-84
2022/08/25 05:25:29;;;;;;;10.13;6.40;;;;;;;;;;4989504;28;20300;-84
2022/08/25 05:27:55;;;;;;;8.68;6.07;;;;;;;;;;4974333;28;20042;-83
2022/08/25 05:30:21;;;;;;;12.38;6.70;;;;;;;;;;4974320;28;20045;-83
2022/08/25 05:32:47;;;;;;;8.57;6.22;;;;;;;;;;4990825;28;20053;-83
2022/08/25 05:35:14;;;;;;;8.43;5.70;;;;;;;;;;5006680;28;20041;-82
2022/08/25 05:37:41;;;;;;;9.23;6.10;;;;;;;;;;4988974;28;20042;-82
2022/08/25 05:40:07;;;;;;;10.20;6.05;;;;;;;;;;4989474;28;20046;-82
2022/08/25 05:42:34;;;;;;;9.25;5.93;;;;;;;;;;4971902;28;20191;-83
2022/08/25 05:45:00;;;;;;;11.73;6.30;;;;;;;;;;4972166;28;20041;-83
2022/08/25 05:47:26;;;;;;;10.60;6.00;;;;;;;;;;4988086;28;20132;-83
2022/08/25 05:49:52;;;;;;;9.32;6.22;;;;;;;;;;4970587;28;20493;-83
2022/08/25 05:52:19;;;;;;;18.55;6.68;;;;;;;;;;5002285;28;20050;-83
2022/08/25 05:54:45;;;;;;;9.30;6.88;;;;;;;;;;4970177;28;20043;-83
2022/08/25 05:57:11;;;;;;;9.05;5.15;;;;;;;;;;4986212;28;20066;-81
2022/08/25 05:59:37;;;;;;;8.57;5.70;;;;;;;;;;4987958;28;20050;-83
2022/08/25 06:04:48;;;;;;;;;;;;;;;;;;5005895;28;20053;-84
2022/08/25 06:07:14;;;;;;;7.97;5.47;;;;;;;;;;4957745;28;19932;-81
2022/08/25 06:09:44;;;;;;;12.25;5.85;;;;;;;;;;4998721;28;20050;-83
2022/08/25 06:12:11;;;;;;;10.23;6.32;;;;;;;;;;4986577;28;20093;-83
2022/08/25 06:14:50;;;;;;;10.82;6.10;;;;;;;;;;4970665;28;20380;-85
2022/08/25 06:17:19;;;;;;;16.60;6.38;;;;;;;;;;4976619;28;20070;-85
2022/08/25 06:19:52;;;;;;;13.45;6.63;;;;;;;;;;4980794;28;20280;-86
2022/08/25 06:22:27;;;;;;;12.20;6.05;;;;;;;;;;5011395;28;20046;-87
2022/08/25 06:24:54;;;;;;;9.93;5.35;;;;;;;;;;4986834;28;20076;-86
2022/08/25 06:27:22;;;;;;;8.95;5.32;;;;;;;;;;4988507;28;20046;-89
2022/08/25 06:29:49;;;;;;;9.23;5.60;;;;;;;;;;5013363;28;20046;-86
2022/08/25 06:32:18;;;;;;;10.70;5.50;;;;;;;;;;4990110;28;20056;-87
2022/08/25 06:34:44;;;;;;;10.18;5.53;;;;;;;;;;4977421;28;20061;-86
2022/08/25 06:37:10;;;;;;;9.60;5.15;;;;;;;;;;5013824;28;20205;-84
2022/08/25 06:39:45;;;;;;;10.13;5.90;;;;;;;;;;4976329;28;20526;-85
2022/08/25 06:42:12;;;;;;;8.95;5.07;;;;;;;;;;5011138;28;20042;-85
2022/08/25 06:44:41;;;;;;;10.75;5.00;;;;;;;;;;4991595;28;20052;-86
2022/08/25 06:47:15;;;;;;;7.93;4.80;;;;;;;;;;4994945;28;20046;-87
2022/08/25 06:49:45;;;;;;;9.13;5.20;;;;;;;;;;4995887;28;20084;-86
2022/08/25 06:52:14;;;;;;;9.95;4.95;;;;;;;;;;4993997;28;20541;-85
2022/08/25 06:54:51;;;;;;;8.80;4.82;;;;;;;;;;4980524;28;20077;-86
2022/08/25 06:57:34;;;;;;;10.63;5.30;;;;;;;;;;4979274;28;20045;-86
2022/08/25 07:00:14;;;;;;;8.40;5.50;;;;;;;;;;4987002;28;20363;-87
2022/08/25 07:02:43;;;;;;;11.40;5.40;;;;;;;;;;5013842;28;20785;-87
2022/08/25 07:05:15;;;;;;;9.77;5.78;;;;;;;;;;4981213;28;20042;-85
2022/08/25 07:07:45;;;;;;;10.32;4.85;;;;;;;;;;4990982;28;20049;-88
2022/08/25 07:10:12;;;;;;;7.85;4.47;;;;;;;;;;4988550;28;20048;-86
2022/08/25 07:12:44;;;;;;;10.23;4.93;;;;;;;;;;4992491;28;20623;-86
2022/08/25 07:15:13;;;;;;;9.35;4.80;;;;;;;;;;5012018;28;20049;-85
2022/08/25 07:17:50;;;;;;;8.13;4.43;;;;;;;;;;4985949;28;20030;-88
2022/08/25 07:20:22;;;;;;;9.27;4.63;;;;;;;;;;5025192;28;20084;-88
2022/08/25 07:22:58;;;;;;;9.52;4.85;;;;;;;;;;4991773;28;20046;-85
2022/08/25 07:25:24;;;;;;;8.70;4.40;;;;;;;;;;5011219;28;20034;-88
2022/08/25 07:27:50;;;;;;;8.43;4.65;;;;;;;;;;5001507;28;20034;-85
2022/08/25 07:30:17;;;;;;;12.02;4.30;;;;;;;;;;4984400;28;20034;-87
2022/08/25 07:35:16;;;;;;;9.20;4.57;;;;;;;;;;5038427;28;20049;-58
2022/08/25 07:37:55;;;;;;;14.10;4.50;;;;;;;;;;5019943;28;20053;-56
2022/08/25 07:40:31;;;;;;;9.65;4.00;;;;;;;;;;5041826;28;20140;-57
2022/08/25 07:42:58;;;;;;;9.43;4.20;;;;;;;;;;5033644;28;20076;-58
2022/08/25 07:45:29;;;;;;;8.90;4.22;;;;;;;;;;5038198;28;20049;-58
2022/08/25 07:48:00;;;;;;;8.82;4.00;;;;;;;;;;5017123;28;20069;-57
2022/08/25 07:50:26;;;;;;;7.57;4.00;;;;;;;;;;5041643;28;20127;-57
2022/08/25 07:52:52;;;;;;;8.75;4.00;;;;;;;;;;5036331;28;20042;-57
2022/08/25 07:55:18;;;;;;;8.68;4.53;;;;;;;;;;5039289;28;20515;-59
2022/08/25 07:57:45;;;;;;;7.93;4.03;;;;;;;;;;5022147;28;20041;-57
2022/08/25 08:00:13;;;;;;;8.30;4.05;;;;;;;;;;5040249;28;20107;-58
2022/08/25 08:02:39;;;;;;;7.95;3.63;;;;;;;;;;5036003;28;20041;-58
2022/08/25 08:05:06;;;;;;;9.48;3.90;;;;;;;;;;5031857;28;20119;-58
2022/08/25 08:07:32;;;;;;;10.15;3.97;;;;;;;;;;5040174;28;20392;-57
2022/08/25 08:09:58;;;;;;;8.05;3.95;;;;;;;;;;5043315;28;20522;-57
2022/08/25 08:12:25;;;;;;;8.90;3.65;;;;;;;;;;5042411;28;20044;-57
2022/08/25 08:14:52;;;;;;;8.90;3.80;;;;;;;;;;5024705;28;20134;-57
2022/08/25 08:17:19;;;;;;;6.88;3.65;;;;;;;;;;5041019;28;20301;-57
2022/08/25 08:19:49;;;;;;;9.23;4.18;;;;;;;;;;5033261;28;20045;-59
2022/08/25 08:22:15;;;;;;;6.43;3.47;;;;;;;;;;5023874;28;20049;-58
2022/08/25 08:24:43;;;;;;;7.63;3.85;;;;;;;;;;5029382;28;20382;-57
2022/08/25 08:27:10;;;;;;;7.72;3.78;;;;;;;;;;5024079;28;20093;-57
2022/08/25 08:29:40;;;;;;;5.85;3.60;;;;;;;;;;5023140;28;20041;-57
2022/08/25 08:32:07;;;;;;;8.00;3.20;;;;;;;;;;5024287;28;20040;-58
2022/08/25 08:34:39;;;;;;;7.82;3.58;;;;;;;;;;5024819;28;20041;-57
2022/08/25 08:37:05;;;;;;;6.72;3.40;;;;;;;;;;5026748;28;20045;-57
2022/08/25 08:39:32;;;;;;;8.23;3.45;;;;;;;;;;5032412;28;20108;-57
2022/08/25 08:42:16;;;;;;;6.25;2.80;;;;;;;;;;5022372;28;20040;-57
2022/08/25 08:44:53;;;;;;;7.10;3.33;;;;;;;;;;5029637;28;20120;-57
2022/08/25 08:47:38;;;;;;;6.80;3.35;;;;;;;;;;5031756;28;20038;-58
2022/08/25 08:50:23;;;;;;;6.18;2.72;;;;;;;;;;5032402;28;20622;-56
2022/08/25 08:52:55;;;;;;;8.85;3.10;;;;;;;;;;5030457;28;20088;-58
2022/08/25 08:55:29;;;;;;;7.80;3.60;;;;;;;;;;5026742;28;20037;-57
2022/08/25 08:57:57;;;;;;;8.38;4.05;;;;;;;;;;5028216;28;20060;-58
2022/08/25 09:00:24;;;;;;;7.45;3.08;;;;;;;;;;5003356;28;20045;-57
2022/08/25 09:02:50;;;;;;;8.65;3.30;;;;;;;;;;5019850;28;20050;-57
2022/08/25 09:05:18;;;;;;;7.40;3.45;;;;;;;;;;5021787;28;20210;-58
2022/08/25 09:07:47;;;;;;;7.95;3.75;;;;;;;;;;5017517;28;20171;-58
2022/08/25 09:10:14;;;;;;;7.03;3.47;;;;;;;;;;5014858;28;20041;-58
2022/08/25 09:12:45;;;;;;;6.70;3.10;;;;;;;;;;5034801;28;20041;-58
2022/08/25 09:15:23;;;;;;;7.80;3.08;;;;;;;;;;5026243;28;20064;-58
2022/08/25 09:17:59;;;;;;;7.78;3.22;;;;;;;;;;5032746;28;21075;-58
2022/08/25 09:20:31;;;;;;;9.48;3.25;;;;;;;;;;5021546;28;20042;-58
2022/08/25 09:23:02;;;;;;;7.22;2.78;;;;;;;;;;5026479;28;20087;-58
2022/08/25 09:25:44;;;;;;;7.53;3.10;;;;;;;;;;5023456;28;20389;-58
2022/08/25 09:28:20;;;;;;;7.63;3.25;;;;;;;;;;5026160;28;20059;-58
2022/08/25 09:30:48;;;;;;;6.85;2.75;;;;;;;;;;5023005;28;20049;-58
2022/08/25 09:33:17;;;;;;;8.32;3.08;;;;;;;;;;5028063;28;20034;-58
2022/08/25 09:35:43;;;;;;;7.32;2.60;;;;;;;;;;5018356;28;20132;-58
2022/08/25 09:38:10;;;;;;;7.18;3.22;;;;;;;;;;5017973;28;20077;-58
2022/08/25 09:40:47;;;;;;;7.43;2.83;;;;;;;;;;5033028;28;20045;-59
2022/08/25 09:43:30;;;;;;;7.15;2.47;;;;;;;;;;5011785;28;20041;-59
2022/08/25 09:45:59;;;;;;;9.18;2.90;;;;;;;;;;5019481;28;20049;-59
2022/08/25 09:48:36;;;;;;;7.13;2.67;;;;;;;;;;5020890;28;20041;-59
2022/08/25 09:51:12;;;;;;;6.60;2.88;;;;;;;;;;5029173;28;20038;-59
2022/08/25 09:53:42;;;;;;;7.25;2.60;;;;;;;;;;5028365;28;20049;-59
2022/08/25 09:56:11;;;;;;;7.55;2.58;;;;;;;;;;5020333;28;20038;-59
2022/08/25 09:58:37;;;;;;;7.47;2.75;;;;;;;;;;5018095;28;20046;-59
2022/08/25 10:01:12;;;;;;;7.07;2.72;;;;;;;;;;5014475;28;20038;-60
2022/08/25 10:03:52;;;;;;;6.07;2.53;;;;;;;;;;5030501;28;20120;-58
2022/08/25 10:06:18;;;;;;;7.97;2.83;;;;;;;;;;5015951;28;20049;-59
2022/08/25 10:08:44;;;;;;;7.47;2.30;;;;;;;;;;5026991;28;20048;-59
2022/08/25 10:11:14;;;;;;;8.40;2.60;;;;;;;;;;5019279;28;20062;-60
2022/08/25 10:13:40;;;;;;;8.90;2.47;;;;;;;;;;5015514;28;20042;-59
2022/08/25 10:16:06;;;;;;;6.70;2.20;;;;;;;;;;5026126;28;20083;-59
2022/08/25 10:18:32;;;;;;;6.50;2.13;;;;;;;;;;5014722;28;20117;-60
2022/08/25 10:21:04;;;;;;;4.80;2.40;;;;;;;;;;5010589;28;20125;-59
2022/08/25 10:23:32;;;;;;;9.18;2.50;;;;;;;;;;5006193;28;20400;-59
2022/08/25 10:26:02;;;;;;;5.05;2.28;;;;;;;;;;5024123;28;20479;-60
2022/08/25 10:28:46;;;;;;;6.97;2.35;;;;;;;;;;5009683;28;20052;-59
2022/08/25 10:31:20;;;;;;;4.93;2.05;;;;;;;;;;5025858;28;20046;-59
2022/08/25 10:33:46;;;;;;;6.28;2.15;;;;;;;;;;5038547;28;20041;-59
2022/08/25 10:36:22;;;;;;;6.28;2.40;;;;;;;;;;5041311;28;20406;-59
2022/08/25 10:38:52;;;;;;;6.93;2.30;;;;;;;;;;5019112;28;20056;-60
2022/08/25 10:41:24;;;;;;;4.85;2.10;;;;;;;;;;5044355;28;20074;-59
2022/08/25 10:47:10;;;;;;;7.93;2.80;;;;;;;;;;5014462;28;20092;-59
2022/08/25 10:49:41;;;;;;;6.50;2.40;;;;;;;;;;5044771;28;20473;-60
2022/08/25 10:52:12;;;;;;;6.00;2.55;;;;;;;;;;5041564;28;20029;-59
2022/08/25 10:54:38;;;;;;;6.45;2.67;;;;;;;;;;5041758;28;20056;-59
2022/08/25 10:57:07;;;;;;;5.35;2.35;;;;;;;;;;5039936;28;20032;-60
2022/08/25 10:59:42;;;;;;;6.45;2.38;;;;;;;;;;5039582;28;20089;-60
2022/08/25 11:02:35;;;;;;;5.75;2.33;;;;;;;;;;5042452;28;20041;-61
2022/08/25 11:05:19;;;;;;;7.45;2.40;;;;;;;;;;5040718;28;20146;-60
2022/08/25 11:07:48;;;;;;;5.45;2.45;;;;;;;;;;5019704;28;20418;-60
2022/08/25 11:10:19;;;;;;;7.75;2.50;;;;;;;;;;5019585;28;20037;-60
2022/08/25 11:12:50;;;;;;;6.45;2.45;;;;;;;;;;5030159;28;20504;-59
2022/08/25 11:15:22;;;;;;;6.20;2.15;;;;;;;;;;5030921;28;20522;-62
2022/08/25 11:17:53;;;;;;;7.68;2.30;;;;;;;;;;5034695;28;20491;-61
2022/08/25 11:20:23;;;;;;;6.28;2.50;;;;;;;;;;5039092;28;20032;-60
2022/08/25 11:23:15;;;;;;;5.10;2.22;;;;;;;;;;5037233;28;20033;-60
2022/08/25 11:25:43;;;;;;;8.32;2.53;;;;;;;;;;5035447;28;20507;-60
2022/08/25 11:28:12;;;;;;;5.70;2.47;;;;;;;;;;5026736;28;20045;-61
2022/08/25 11:30:38;;;;;;;7.65;2.80;;;;;;;;;;5030418;28;20104;-60
2022/08/25 11:33:05;;;;;;;9.55;2.75;;;;;;;;;;5026300;28;20042;-60
2022/08/25 11:35:52;;;;;;;6.03;2.30;;;;;;;;;;5025667;28;20072;-60
2022/08/25 11:38:36;;;;;;;5.18;2.60;;;;;;;;;;5013312;28;20037;-60
2022/08/25 11:41:22;;;;;;;5.32;2.55;;;;;;;;;;5018000;28;20117;-60
2022/08/25 11:44:00;;;;;;;6.63;2.63;;;;;;;;;;5008879;28;20064;-60
2022/08/25 11:46:29;;;;;;;5.30;2.47;;;;;;;;;;5020113;28;20045;-61
2022/08/25 11:49:07;;;;;;;7.18;2.50;;;;;;;;;;5020617;28;20036;-61
2022/08/25 11:51:45;;;;;;;6.43;2.47;;;;;;;;;;5019082;28;20117;-61
2022/08/25 11:54:27;;;;;;;9.68;2.70;;;;;;;;;;5015226;28;20103;-61
2022/08/25 11:57:05;;;;;;;6.13;2.78;;;;;;;;;;5021244;28;20038;-61
2022/08/25 11:59:52;;;;;;;5.50;2.88;;;;;;;;;;5029681;28;20045;-60
2022/08/25 12:02:37;;;;;;;6.65;2.58;;;;;;;;;;5028489;28;20044;-61
2022/08/25 12:05:09;;;;;;;5.43;2.50;;;;;;;;;;5017827;28;20400;-61
2022/08/25 12:07:47;;;;;;;5.10;2.35;;;;;;;;;;5021476;28;20073;-61
2022/08/25 12:10:15;;;;;;;5.57;2.65;;;;;;;;;;5036763;28;20102;-61
2022/08/25 12:12:41;;;;;;;5.85;2.60;;;;;;;;;;5019718;28;20049;-61
2022/08/25 12:15:13;;;;;;;5.95;2.45;;;;;;;;;;5019873;28;20038;-61
2022/08/25 12:17:39;;;;;;;5.47;2.28;;;;;;;;;;5010905;28;20048;-60
2022/08/25 12:20:06;;;;;;;6.68;2.60;;;37.20;99.90;;;;;;5025516;28;20038;-60
2022/08/25 12:22:31;;;;;;;6.00;2.63;;;37.90;99.90;;;;;;5037159;28;20119;-60
2022/08/25 12:25:12;;;;;;;5.13;2.30;;;39.80;99.90;;;;;;5015754;28;20124;-61
2022/08/25 12:27:44;;;;;;;5.97;2.40;;;41.10;99.90;;;;;;5019772;28;20478;-61
2022/08/25 12:30:19;;;;;;;5.70;2.28;;;42.50;99.90;;;;;;5012943;28;20499;-61
2022/08/25 12:32:52;;;;;;;6.78;2.47;;;44.90;99.90;;;;;;5021807;28;20407;-60
2022/08/25 12:35:28;;;;;;;6.00;2.40;;;44.20;99.90;;;;;;5030516;28;20091;-62
2022/08/25 12:38:16;;;;;;;6.05;2.20;;;44.10;99.90;;;;;;5021450;28;20103;-62
2022/08/25 12:40:41;;;;;;;8.20;2.10;;;44.70;99.90;;;;;;5029372;28;20042;-62
2022/08/25 12:43:23;;;;;;;5.78;2.10;;;45.20;99.90;;;;;;5020481;28;20120;-62
2022/08/25 12:45:50;;;;;;;5.50;2.10;;;45.70;99.90;;;;;;5003047;28;20034;-62
2022/08/25 12:48:29;;;;;;;5.03;2.08;;;46.40;99.90;;;;;;5023269;28;20037;-61
2022/08/25 12:51:00;;;;;;;5.95;2.17;;;46.60;99.90;;;;;;5027489;28;20044;-62
2022/08/25 12:53:39;;;;;;;5.45;2.25;;;47.40;99.90;;;;;;5029345;28;20045;-62
2022/08/25 12:56:19;;;;;;;5.38;2.22;;;48.10;99.90;;;;;;5017279;28;20061;-62
2022/08/25 12:59:06;;;;;;;5.03;2.20;;;47.60;99.90;;;;;;5028758;28;20124;-62
2022/08/25 13:01:51;;;;;;;7.88;2.20;;;47.40;99.90;;;;;;5024705;28;20419;-62
2022/08/25 13:04:49;;;;;;;5.38;2.60;;;47.70;99.90;;;;;;5024227;28;20407;-62
2022/08/25 13:07:20;;;;;;;5.00;2.05;;;48.40;99.90;;;;;;4970505;28;20041;-62
2022/08/25 13:10:12;;;;;;;7.88;2.60;;;48.20;99.90;;;;;;5002513;28;20033;-62
2022/08/25 13:12:44;;;;;;;7.50;2.50;;;48.20;99.90;;;;;;5016764;28;20084;-62
2022/08/25 13:15:24;;;;;;;4.50;2.10;;;48.50;99.90;;;;;;5032984;28;20109;-62
2022/08/25 13:17:50;;;;;;;5.85;2.38;;;48.20;99.90;;;;;;5027674;28;20033;-63
2022/08/25 13:20:27;;;;;;;5.13;1.95;;;48.40;99.90;;;;;;5023115;28;20437;-62
2022/08/25 13:22:58;;;;;;;5.85;2.13;;;48.80;99.90;;;;;;5021862;28;20037;-62
2022/08/25 13:25:26;;;;;;;5.75;2.15;;;48.50;99.90;;;;;;5022101;28;20037;-62
2022/08/25 13:28:01;;;;;;;5.80;2.00;;;48.80;99.90;;;;;;5023873;28;20112;-62
2022/08/25 13:30:30;;;;;;;4.55;2.15;;;49.00;99.90;;;;;;5024160;28;20095;-62
2022/08/25 13:32:57;;;;;;;5.05;2.30;;;48.80;99.90;;;;;;5036451;28;20406;-62
2022/08/25 13:35:31;;;;;;;6.50;2.28;;;49.00;99.90;;;;;;5034132;28;20037;-62
2022/08/25 13:38:14;;;;;;;5.22;1.90;;;49.70;99.90;;;;;;5029365;28;20041;-62
2022/08/25 13:40:42;;;;;;;6.68;2.28;;;49.40;99.90;;;;;;5031592;28;20037;-62
2022/08/25 13:43:11;;;;;;;5.88;2.15;;;49.70;99.90;;;;;;5019562;28;20056;-62
2022/08/25 13:45:41;;;;;;;5.18;2.20;;;49.80;99.90;;;;;;5027134;28;20037;-59
2022/08/25 13:48:11;;;;;;;4.40;2.20;;;50.20;99.90;;;;;;5020331;28;20041;-59
2022/08/25 13:50:41;;;;;;;5.60;2.10;;;50.10;99.90;;;;;;5024591;28;20097;-60
2022/08/25 13:53:15;;;;;;;6.25;2.17;;;50.60;99.90;;;;;;5016016;28;20034;-59
2022/08/25 13:55:47;;;;;;;4.88;2.05;;;50.90;99.90;;;;;;5036006;28;20038;-62
2022/08/25 13:58:14;;;;;;;;;;;51.30;99.90;;;;;;5030627;28;20463;-62
2022/08/25 14:00:44;;;;;;;5.28;2.30;;;51.10;99.90;;;;;;5033266;28;20011;-61
2022/08/25 14:03:46;;;;;;;6.72;2.30;;;50.90;99.90;;;;;;5032748;28;20033;-62
2022/08/25 14:06:15;;;;;;;8.27;2.70;;;51.10;99.90;;;;;;5007897;28;20082;-62
2022/08/25 14:08:44;;;;;;;4.68;2.28;;;50.70;99.90;;;;;;5026851;28;20502;-62
2022/08/25 14:11:29;;;;;;;4.65;2.13;;;50.70;99.90;;;;;;5027323;28;20121;-61
2022/08/25 14:14:07;;;;;;;6.53;2.30;;;51.30;99.90;;;;;;5033239;28;20041;-59
2022/08/25 14:16:55;;;;;;;5.13;2.35;;;51.00;99.90;;;;;;5012335;28;20402;-62
2022/08/25 14:19:22;;;;;;;6.07;2.53;;;51.50;99.90;;;;;;5037073;28;20468;-60
2022/08/25 14:21:49;;;;;;;6.70;2.00;;;51.30;99.90;;;;;;5024346;28;20056;-62
2022/08/25 14:24:16;;;;;;;6.78;2.63;;;51.20;99.90;;;;;;5033563;28;20126;-59
2022/08/25 14:26:42;;;;;;;4.65;2.35;;;51.10;99.90;;;;;;5006298;28;20053;-59
2022/08/25 14:29:07;;;;;;;5.85;2.67;;;51.50;99.90;;;;;;5024512;28;20041;-59
2022/08/25 14:31:38;;;;;;;4.50;2.10;;;51.40;99.90;;;;;;5021977;28;20589;-62
2022/08/25 14:34:11;;;;;;;6.82;2.17;;;51.40;99.90;;;;;;5024360;28;20044;-62
2022/08/25 14:36:37;;;;;;;4.57;2.67;;;51.90;99.90;;;;;;5020897;28;20052;-62
2022/08/25 14:39:05;;;;;;;5.35;2.28;;;50.90;99.90;;;;;;5016167;28;20033;-62
2022/08/25 14:41:33;;;;;;;5.53;2.53;;;50.70;99.90;;;;;;5006695;28;20091;-61
2022/08/25 14:43:59;;;;;;;6.88;2.33;;;50.80;99.90;;;;;;5018015;28;20041;-62
2022/08/25 14:46:28;;;;;;;5.25;2.45;;;50.90;99.90;;;;;;5020459;28;20106;-62
2022/08/25 14:48:58;;;;;;;5.05;2.45;;;50.70;99.90;;;;;;5027098;28;20492;-62
2022/08/25 14:51:25;;;;;;;4.60;2.30;;;50.60;99.90;;;;;;5036140;28;20387;-62
2022/08/25 14:53:54;;;;;;;6.18;2.50;;;50.30;99.90;;;;;;5042951;28;20049;-62
2022/08/25 14:56:20;;;;;;;6.50;2.10;;;50.40;99.90;;;;;;5043607;28;20078;-62
2022/08/25 14:58:46;;;;;;;5.65;2.65;;;50.30;99.90;;;;;;5040055;28;20032;-62